Observation data for Muleshoe on 01/21/2019      Previous  Date  Next       Current Mesonet Observations  Soil Data  Daily Summary Page  Observations in Plain Language
KMUS 210600Z 22008KT 08/M07 A2998 RMK A01 T00771069  RH  035%=      5-min Rain = 0
KMUS 210605Z 23008KT 08/M07 A2998 RMK A01 T00761069  RH  035%=      5-min Rain = 0
KMUS 210610Z 22009KT 08/M07 A2998 RMK A01 T00761070  RH  035%=      5-min Rain = 0
KMUS 210615Z 23009KT 08/M07 A2998 RMK A01 T00761070  RH  035%=      5-min Rain = 0
KMUS 210620Z 25007KT 08/M07 A2998 RMK A01 T00761072  RH  034%=      5-min Rain = 0
KMUS 210625Z 29006KT 07/M07 A2998 RMK A01 T00651069  RH  038%=      5-min Rain = 0
KMUS 210630Z 28006KT 05/M07 A2998 RMK A01 T00491065  RH  044%=      5-min Rain = 0
KMUS 210635Z 26007KT 05/M06 A2998 RMK A01 T00451064  RH  045%=      5-min Rain = 0
KMUS 210640Z 25007KT 04/M06 A2998 RMK A01 T00431064  RH  046%=      5-min Rain = 0
KMUS 210645Z 26005KT 04/M07 A2997 RMK A01 T00401065  RH  046%=      5-min Rain = 0
KMUS 210650Z 28004KT 03/M06 A2997 RMK A01 T00281063  RH  051%=      5-min Rain = 0
KMUS 210655Z 24005KT 02/M06 A2997 RMK A01 T00191063  RH  055%=      5-min Rain = 0
KMUS 210700Z 24004KT 02/M06 A2997 RMK A01 T00161062  RH  056%=      5-min Rain = 0
KMUS 210705Z 25003KT 01/M06 A2996 RMK A01 T00141062  RH  057%=      5-min Rain = 0
KMUS 210710Z 28003KT 01/M06 A2996 RMK A01 T00111062  RH  058%=      5-min Rain = 0
KMUS 210715Z 27005KT 01/M06 A2996 RMK A01 T00091062  RH  059%=      5-min Rain = 0
KMUS 210720Z 26005KT 01/M06 A2996 RMK A01 T00081063  RH  059%=      5-min Rain = 0
KMUS 210725Z 26004KT 01/M07 A2995 RMK A01 T00071065  RH  059%=      5-min Rain = 0
KMUS 210730Z 26004KT 00/M07 A2995 RMK A01 T00021069  RH  059%=      5-min Rain = 0
KMUS 210735Z 25003KT 00/M07 A2995 RMK A01 T00021067  RH  060%=      5-min Rain = 0
KMUS 210740Z 24004KT 00/M07 A2995 RMK A01 T00041068  RH  058%=      5-min Rain = 0
KMUS 210745Z 24005KT 00/M07 A2994 RMK A01 T00041068  RH  059%=      5-min Rain = 0
KMUS 210750Z 25005KT 00/07 A2994 RMK A01 T00-00-66  RH  061%=      5-min Rain = 0
KMUS 210755Z 25005KT M00/M07 A2994 RMK A01 T10031067  RH  062%=      5-min Rain = 0
KMUS 210800Z 27003KT M01/M07 A2993 RMK A01 T10061067  RH  063%=      5-min Rain = 0
KMUS 210805Z 29004KT M01/M06 A2994 RMK A01 T10051061  RH  066%=      5-min Rain = 0
KMUS 210810Z 30006KT M00/M06 A2994 RMK A01 T10041059  RH  066%=      5-min Rain = 0
KMUS 210815Z 29005KT M01/M06 A2994 RMK A01 T10051059  RH  067%=      5-min Rain = 0
KMUS 210820Z 29007KT M01/M06 A2994 RMK A01 T10091060  RH  068%=      5-min Rain = 0
KMUS 210825Z 28006KT M01/M06 A2994 RMK A01 T10121059  RH  070%=      5-min Rain = 0
KMUS 210830Z 27005KT M01/M06 A2993 RMK A01 T10131059  RH  071%=      5-min Rain = 0
KMUS 210835Z 27006KT M02/M06 A2993 RMK A01 T10161061  RH  071%=      5-min Rain = 0
KMUS 210840Z 28007KT M02/M06 A2993 RMK A01 T10151059  RH  072%=      5-min Rain = 0
KMUS 210845Z 27005KT M02/M06 A2993 RMK A01 T10171060  RH  072%=      5-min Rain = 0
KMUS 210850Z 26005KT M02/M06 A2993 RMK A01 T10181060  RH  073%=      5-min Rain = 0
KMUS 210855Z 26005KT M02/M06 A2992 RMK A01 T10181062  RH  072%=      5-min Rain = 0
KMUS 210900Z 26006KT M02/M06 A2992 RMK A01 T10181062  RH  072%=      5-min Rain = 0
KMUS 210905Z 26006KT M02/M06 A2992 RMK A01 T10171060  RH  073%=      5-min Rain = 0
KMUS 210910Z 26006KT M01/M06 A2991 RMK A01 T10131058  RH  072%=      5-min Rain = 0
KMUS 210915Z 26007KT M01/M06 A2991 RMK A01 T10111058  RH  071%=      5-min Rain = 0
KMUS 210920Z 26006KT M01/M06 A2991 RMK A01 T10111058  RH  070%=      5-min Rain = 0
KMUS 210925Z 25006KT M01/M06 A2991 RMK A01 T10121060  RH  070%=      5-min Rain = 0
KMUS 210930Z 24006KT M02/M06 A2991 RMK A01 T10151062  RH  070%=      5-min Rain = 0
KMUS 210935Z 24006KT M02/M07 A2991 RMK A01 T10191065  RH  071%=      5-min Rain = 0
KMUS 210940Z 24006KT M02/M07 A299 RMK A01 T10221066  RH  072%=      5-min Rain = 0
KMUS 210945Z 25007KT M02/M07 A299 RMK A01 T10221065  RH  073%=      5-min Rain = 0
KMUS 210950Z 24006KT M02/M06 A299 RMK A01 T10201064  RH  072%=      5-min Rain = 0
KMUS 210955Z 23006KT M02/M07 A299 RMK A01 T10211067  RH  071%=      5-min Rain = 0
KMUS 211000Z 21007KT M03/M07 A299 RMK A01 T10261070  RH  072%=      5-min Rain = 0
KMUS 211005Z 21007KT M03/M07 A299 RMK A01 T10251069  RH  072%=      5-min Rain = 0
KMUS 211010Z 22007KT M03/M07 A2989 RMK A01 T10251068  RH  072%=      5-min Rain = 0
KMUS 211015Z 20009KT M02/M07 A2989 RMK A01 T10231066  RH  073%=      5-min Rain = 0
KMUS 211020Z 21009KT M02/M06 A2989 RMK A01 T10181064  RH  071%=      5-min Rain = 0
KMUS 211025Z 21010KT M01/M06 A2989 RMK A01 T10081060  RH  068%=      5-min Rain = 0
KMUS 211030Z 22009KT 01/M06 A2989 RMK A01 T00071056  RH  063%=      5-min Rain = 0
KMUS 211035Z 21009KT 02/M06 A2989 RMK A01 T00161057  RH  058%=      5-min Rain = 0
KMUS 211040Z 20007KT 01/M06 A2988 RMK A01 T00141059  RH  058%=      5-min Rain = 0
KMUS 211045Z 20007KT 01/M06 A2988 RMK A01 T00071061  RH  060%=      5-min Rain = 0
KMUS 211050Z 26005KT 00/M06 A2987 RMK A01 T00021062  RH  062%=      5-min Rain = 0
KMUS 211055Z 24006KT 00/M06 A2987 RMK A01 T00041060  RH  063%=      5-min Rain = 0
KMUS 211100Z 29007KT 00/06 A2987 RMK A01 T00-00-63  RH  063%=      5-min Rain = 0
KMUS 211105Z 30007KT M01/M07 A2988 RMK A01 T10131065  RH  068%=      5-min Rain = 0
KMUS 211110Z 28006KT M02/M07 A2988 RMK A01 T10241067  RH  073%=      5-min Rain = 0
KMUS 211115Z 27005KT M03/M07 A2987 RMK A01 T10291067  RH  075%=      5-min Rain = 0
KMUS 211120Z 27003KT M03/M07 A2987 RMK A01 T10301066  RH  076%=      5-min Rain = 0
KMUS 211125Z 26003KT M03/M07 A2987 RMK A01 T10311067  RH  076%=      5-min Rain = 0
KMUS 211130Z 24005KT M03/M07 A2988 RMK A01 T10311068  RH  076%=      5-min Rain = 0
KMUS 211135Z 23004KT M03/M07 A2988 RMK A01 T10331067  RH  077%=      5-min Rain = 0
KMUS 211140Z 24004KT M03/M07 A2987 RMK A01 T10331067  RH  077%=      5-min Rain = 0
KMUS 211145Z 24004KT M03/M07 A2987 RMK A01 T10341069  RH  077%=      5-min Rain = 0
KMUS 211150Z 24004KT M04/M07 A2987 RMK A01 T10351068  RH  078%=      5-min Rain = 0
KMUS 211155Z 21004KT M04/M07 A2987 RMK A01 T10351067  RH  078%=      5-min Rain = 0
KMUS 211200Z 20004KT M04/M07 A2987 RMK A01 T10351068  RH  078%=      5-min Rain = 0
KMUS 211205Z 18003KT M04/M07 A2986 RMK A01 T10361069  RH  078%=      5-min Rain = 0
KMUS 211210Z 19004KT M04/M07 A2986 RMK A01 T10351067  RH  079%=      5-min Rain = 0
KMUS 211215Z 20006KT M03/M07 A2986 RMK A01 T10331067  RH  077%=      5-min Rain = 0
KMUS 211220Z 20008KT M03/M06 A2986 RMK A01 T10261064  RH  075%=      5-min Rain = 0
KMUS 211225Z 22007KT M02/M06 A2986 RMK A01 T10191063  RH  072%=      5-min Rain = 0
KMUS 211230Z 23006KT M02/M06 A2986 RMK A01 T10151062  RH  070%=      5-min Rain = 0
KMUS 211235Z 24007KT M01/M06 A2986 RMK A01 T10111062  RH  068%=      5-min Rain = 0
KMUS 211240Z 25007KT M01/M06 A2986 RMK A01 T10091061  RH  068%=      5-min Rain = 0
KMUS 211245Z 24006KT M01/M06 A2986 RMK A01 T10081060  RH  068%=      5-min Rain = 0
KMUS 211250Z 26005KT M01/M06 A2986 RMK A01 T10091060  RH  068%=      5-min Rain = 0
KMUS 211255Z 27006KT M01/M06 A2986 RMK A01 T10111061  RH  069%=      5-min Rain = 0
KMUS 211300Z 27005KT M01/M06 A2986 RMK A01 T10131061  RH  070%=      5-min Rain = 0
KMUS 211305Z 28003KT M02/M06 A2986 RMK A01 T10151062  RH  071%=      5-min Rain = 0
KMUS 211310Z 29004KT M02/M06 A2987 RMK A01 T10181063  RH  071%=      5-min Rain = 0
KMUS 211315Z 26002KT M02/M07 A2987 RMK A01 T10221065  RH  073%=      5-min Rain = 0
KMUS 211320Z 26002KT M02/M07 A2987 RMK A01 T10241065  RH  074%=      5-min Rain = 0
KMUS 211325Z 28002KT M03/M06 A2987 RMK A01 T10251064  RH  075%=      5-min Rain = 0
KMUS 211330Z 24002KT M03/M06 A2986 RMK A01 T10261063  RH  076%=      5-min Rain = 0
KMUS 211335Z 24002KT M03/M07 A2986 RMK A01 T10281065  RH  076%=      5-min Rain = 0
KMUS 211340Z 22004KT M03/M07 A2985 RMK A01 T10311067  RH  076%=      5-min Rain = 0
KMUS 211345Z 20004KT M03/M07 A2985 RMK A01 T10321067  RH  077%=      5-min Rain = 0
KMUS 211350Z 20004KT M04/M07 A2985 RMK A01 T10351069  RH  077%=      5-min Rain = 0
KMUS 211355Z 22003KT M04/M07 A2985 RMK A01 T10351067  RH  078%=      5-min Rain = 0
KMUS 211400Z 22002KT M03/M07 A2985 RMK A01 T10321065  RH  078%=      5-min Rain = 0
KMUS 211405Z 23003KT M03/M06 A2984 RMK A01 T10311064  RH  078%=      5-min Rain = 0
KMUS 211410Z 22002KT M03/M07 A2984 RMK A01 T10321066  RH  077%=      5-min Rain = 0
KMUS 211415Z 24003KT M03/M07 A2984 RMK A01 T10321065  RH  078%=      5-min Rain = 0
KMUS 211420Z 25004KT M03/M07 A2984 RMK A01 T10341067  RH  078%=      5-min Rain = 0
KMUS 211425Z 23007KT M03/M06 A2984 RMK A01 T10291058  RH  081%=      5-min Rain = 0
KMUS 211430Z 23008KT M01/M05 A2984 RMK A01 T10101047  RH  077%=      5-min Rain = 0
KMUS 211435Z 22010KT 01/M04 A2984 RMK A01 T00091044  RH  068%=      5-min Rain = 0
KMUS 211440Z 23009KT 03/M05 A2983 RMK A01 T00321045  RH  057%=      5-min Rain = 0
KMUS 211445Z 25008KT 05/M05 A2984 RMK A01 T00491048  RH  049%=      5-min Rain = 0
KMUS 211450Z 26006KT 05/M05 A2984 RMK A01 T00531048  RH  048%=      5-min Rain = 0
KMUS 211455Z 27006KT 05/M05 A2984 RMK A01 T00511048  RH  049%=      5-min Rain = 0
KMUS 211500Z 27005KT 05/M05 A2984 RMK A01 T00501047  RH  050%=      5-min Rain = 0
KMUS 211505Z 25005KT 05/M05 A2984 RMK A01 T00481046  RH  051%=      5-min Rain = 0
KMUS 211510Z 26005KT 05/M05 A2984 RMK A01 T00521048  RH  048%=      5-min Rain = 0
KMUS 211515Z 29005KT 06/M05 A2984 RMK A01 T00551048  RH  048%=      5-min Rain = 0
KMUS 211520Z 30005KT 05/M04 A2984 RMK A01 T00471037  RH  055%=      5-min Rain = 0
KMUS 211525Z 28003KT 04/M04 A2984 RMK A01 T00421036  RH  057%=      5-min Rain = 0
KMUS 211530Z 25004KT 04/M04 A2983 RMK A01 T00431038  RH  056%=      5-min Rain = 0
KMUS 211535Z 25005KT 05/M04 A2983 RMK A01 T00511044  RH  050%=      5-min Rain = 0
KMUS 211540Z 27004KT 06/M04 A2983 RMK A01 T00561044  RH  049%=      5-min Rain = 0
KMUS 211545Z 24004KT 06/M04 A2983 RMK A01 T00581043  RH  049%=      5-min Rain = 0
KMUS 211550Z 26003KT 06/M04 A2983 RMK A01 T00631041  RH  047%=      5-min Rain = 0
KMUS 211555Z 30004KT 07/M04 A2983 RMK A01 T00651041  RH  047%=      5-min Rain = 0
KMUS 211600Z 30004KT 06/M04 A2983 RMK A01 T00641040  RH  048%=      5-min Rain = 0
KMUS 211605Z 29003KT 06/M04 A2983 RMK A01 T00631039  RH  048%=      5-min Rain = 0
KMUS 211610Z 27004KT 06/M04 A2983 RMK A01 T00631039  RH  048%=      5-min Rain = 0
KMUS 211615Z 27005KT 07/M04 A2983 RMK A01 T00661038  RH  048%=      5-min Rain = 0
KMUS 211620Z 26006KT 08/M04 A2983 RMK A01 T00761040  RH  044%=      5-min Rain = 0
KMUS 211625Z 27006KT 08/M04 A2983 RMK A01 T00811039  RH  043%=      5-min Rain = 0
KMUS 211630Z 25007KT 09/M04 A2983 RMK A01 T00891039  RH  040%=      5-min Rain = 0
KMUS 211635Z 26006KT 10/M04 A2982 RMK A01 T00991041  RH  037%=      5-min Rain = 0
KMUS 211640Z 26006KT 11/M04 A2982 RMK A01 T01081042  RH  035%=      5-min Rain = 0
KMUS 211645Z 26008KT 11/M05 A2982 RMK A01 T01141046  RH  032%=      5-min Rain = 0
KMUS 211650Z 27007KT 12/M04 A2982 RMK A01 T01171044  RH  032%=      5-min Rain = 0
KMUS 211655Z 28007KT 12/M05 A2982 RMK A01 T01211045  RH  031%=      5-min Rain = 0
KMUS 211700Z 28007KT 12/M05 A2982 RMK A01 T01191045  RH  031%=      5-min Rain = 0
KMUS 211705Z 28008KT 12/M05 A2982 RMK A01 T01211045  RH  031%=      5-min Rain = 0
KMUS 211710Z 29009KT 12/M04 A2982 RMK A01 T01241044  RH  031%=      5-min Rain = 0
KMUS 211715Z 28008KT 13/M04 A2982 RMK A01 T01261042  RH  031%=      5-min Rain = 0
KMUS 211720Z 28008KT 13/M04 A2981 RMK A01 T01311041  RH  030%=      5-min Rain = 0
KMUS 211725Z 28008KT 14/M04 A2981 RMK A01 T01361042  RH  029%=      5-min Rain = 0
KMUS 211730Z 29008KT 14/M04 A2981 RMK A01 T01381041  RH  029%=      5-min Rain = 0
KMUS 211735Z 27009G14KT 15/M04 A298 RMK A01 T01471039  RH  028%=      5-min Rain = 0
KMUS 211740Z 25011KT 16/M04 A298 RMK A01 T01621043  RH  024%=      5-min Rain = 0
KMUS 211745Z 25009KT 17/M04 A298 RMK A01 T01681041  RH  024%=      5-min Rain = 0
KMUS 211750Z 24010KT 17/M05 A2979 RMK A01 T01721045  RH  022%=      5-min Rain = 0
KMUS 211755Z 24012G19KT 19/M05 A2979 RMK A01 T01861047  RH  020%=      5-min Rain = 0
KMUS 211800Z 24014G19KT 20/M06 A2978 RMK A01 T01961055  RH  018%=      5-min Rain = 0
KMUS 211805Z 24015G23KT 20/M06 A2978 RMK A01 T02011060  RH  017%=      5-min Rain = 0
KMUS 211810Z 24018G23KT 21/M07 A2977 RMK A01 T02091071  RH  015%=      5-min Rain = 0
KMUS 211815Z 24017G23KT 21/M07 A2977 RMK A01 T02101073  RH  014%=      5-min Rain = 0
KMUS 211820Z 23018G25KT 21/M08 A2977 RMK A01 T02101076  RH  014%=      5-min Rain = 0
KMUS 211825Z 23020G28KT 21/M08 A2976 RMK A01 T02101077  RH  014%=      5-min Rain = 0
KMUS 211830Z 23021G27KT 21/M08 A2976 RMK A01 T02101077  RH  014%=      5-min Rain = 0
KMUS 211835Z 23019G24KT 21/M08 A2976 RMK A01 T02111076  RH  014%=      5-min Rain = 0
KMUS 211840Z 23019G26KT 21/M08 A2975 RMK A01 T02111076  RH  014%=      5-min Rain = 0
KMUS 211845Z 23019G25KT 22/M08 A2975 RMK A01 T02151075  RH  014%=      5-min Rain = 0
KMUS 211850Z 24020G26KT 22/M08 A2974 RMK A01 T02171076  RH  013%=      5-min Rain = 0
KMUS 211855Z 23021G28KT 21/M08 A2974 RMK A01 T02141077  RH  013%=      5-min Rain = 0
KMUS 211900Z 23020G26KT 22/M08 A2974 RMK A01 T02191076  RH  013%=      5-min Rain = 0
KMUS 211905Z 23018G26KT 22/M08 A2973 RMK A01 T02201076  RH  013%=      5-min Rain = 0
KMUS 211910Z 23019KT 23/M08 A2973 RMK A01 T02251076  RH  013%=      5-min Rain = 0
KMUS 211915Z 22018G26KT 23/M08 A2972 RMK A01 T02271077  RH  012%=      5-min Rain = 0
KMUS 211920Z 22020G25KT 22/M08 A2972 RMK A01 T02241080  RH  012%=      5-min Rain = 0
KMUS 211925Z 22019G26KT 23/M08 A2971 RMK A01 T02261079  RH  012%=      5-min Rain = 0
KMUS 211930Z 22020G25KT 23/M08 A2971 RMK A01 T02271081  RH  012%=      5-min Rain = 0
KMUS 211935Z 22019G24KT 23/M08 A2971 RMK A01 T02261081  RH  012%=      5-min Rain = 0
KMUS 211940Z 21019G25KT 23/M08 A297 RMK A01 T02261082  RH  012%=      5-min Rain = 0
KMUS 211945Z 22019G26KT 23/M08 A297 RMK A01 T02261082  RH  012%=      5-min Rain = 0
KMUS 211950Z 23018G24KT 23/M08 A2969 RMK A01 T02281082  RH  012%=      5-min Rain = 0
KMUS 211955Z 22018G23KT 23/M08 A2969 RMK A01 T02301080  RH  012%=      5-min Rain = 0
KMUS 212000Z 23019G25KT 23/M09 A2969 RMK A01 T02291085  RH  012%=      5-min Rain = 0
KMUS 212005Z 22020G27KT 23/M09 A2969 RMK A01 T02281088  RH  011%=      5-min Rain = 0
KMUS 212010Z 22017G23KT 23/M08 A2968 RMK A01 T02301083  RH  012%=      5-min Rain = 0
KMUS 212015Z 22020G25KT 23/M08 A2968 RMK A01 T02271084  RH  012%=      5-min Rain = 0
KMUS 212020Z 22019G24KT 23/M08 A2968 RMK A01 T02271083  RH  012%=      5-min Rain = 0
KMUS 212025Z 23019G26KT 23/M08 A2968 RMK A01 T02271084  RH  012%=      5-min Rain = 0
KMUS 212030Z 23019G24KT 23/M09 A2967 RMK A01 T02251085  RH  012%=      5-min Rain = 0
KMUS 212035Z 23019G25KT 22/M09 A2967 RMK A01 T02231085  RH  012%=      5-min Rain = 0
KMUS 212040Z 23020G27KT 22/M09 A2967 RMK A01 T02221086  RH  012%=      5-min Rain = 0
KMUS 212045Z 23016G23KT 22/M09 A2967 RMK A01 T02221085  RH  012%=      5-min Rain = 0
KMUS 212050Z 24020G27KT 22/M08 A2967 RMK A01 T02241084  RH  012%=      5-min Rain = 0
KMUS 212055Z 22018G24KT 22/M08 A2967 RMK A01 T02241082  RH  012%=      5-min Rain = 0
KMUS 212100Z 22021G26KT 23/M08 A2966 RMK A01 T02251082  RH  012%=      5-min Rain = 0
KMUS 212105Z 22020G28KT 22/M08 A2966 RMK A01 T02231084  RH  012%=      5-min Rain = 0
KMUS 212110Z 22020G26KT 22/M08 A2966 RMK A01 T02241083  RH  012%=      5-min Rain = 0
KMUS 212115Z 21020G26KT 22/M08 A2965 RMK A01 T02221083  RH  012%=      5-min Rain = 0
KMUS 212120Z 22020G28KT 22/M09 A2965 RMK A01 T02211085  RH  012%=      5-min Rain = 0
KMUS 212125Z 22020G26KT 22/M09 A2965 RMK A01 T02201085  RH  012%=      5-min Rain = 0
KMUS 212130Z 22021G27KT 22/M08 A2965 RMK A01 T02171084  RH  012%=      5-min Rain = 0
KMUS 212135Z 22020G26KT 22/M08 A2965 RMK A01 T02161083  RH  013%=      5-min Rain = 0
KMUS 212140Z 22019G27KT 22/M08 A2965 RMK A01 T02151081  RH  013%=      5-min Rain = 0
KMUS 212145Z 21019G25KT 22/M08 A2965 RMK A01 T02151080  RH  013%=      5-min Rain = 0
KMUS 212150Z 22019G25KT 21/M08 A2964 RMK A01 T02141081  RH  013%=      5-min Rain = 0
KMUS 212155Z 22020KT 21/M08 A2964 RMK A01 T02141082  RH  013%=      5-min Rain = 0
KMUS 212200Z 22019G26KT 21/M08 A2964 RMK A01 T02131081  RH  013%=      5-min Rain = 0
KMUS 212205Z 22019G25KT 21/M08 A2964 RMK A01 T02131081  RH  013%=      5-min Rain = 0
KMUS 212210Z 21018G27KT 21/M08 A2964 RMK A01 T02131079  RH  013%=      5-min Rain = 0
KMUS 212215Z 21018G26KT 21/M08 A2964 RMK A01 T02121080  RH  013%=      5-min Rain = 0
KMUS 212220Z 21020G26KT 21/M08 A2964 RMK A01 T02111079  RH  013%=      5-min Rain = 0
KMUS 212225Z 21018G26KT 21/M08 A2964 RMK A01 T02111079  RH  014%=      5-min Rain = 0
KMUS 212230Z 21019G26KT 21/M08 A2964 RMK A01 T02101079  RH  014%=      5-min Rain = 0
KMUS 212235Z 21021G28KT 21/M08 A2964 RMK A01 T02091080  RH  014%=      5-min Rain = 0
KMUS 212240Z 21019G24KT 21/M08 A2964 RMK A01 T02081080  RH  014%=      5-min Rain = 0
KMUS 212245Z 20018G27KT 21/M08 A2963 RMK A01 T02061079  RH  014%=      5-min Rain = 0
KMUS 212250Z 21016G22KT 20/M08 A2964 RMK A01 T02041080  RH  014%=      5-min Rain = 0
KMUS 212255Z 21015G25KT 20/M08 A2963 RMK A01 T02031080  RH  014%=      5-min Rain = 0
KMUS 212300Z 22020G30KT 20/M08 A2963 RMK A01 T02041082  RH  014%=      5-min Rain = 0
KMUS 212305Z 21016G21KT 20/M08 A2963 RMK A01 T02031081  RH  014%=      5-min Rain = 0
KMUS 212310Z 21016G24KT 20/M08 A2963 RMK A01 T02021081  RH  014%=      5-min Rain = 0
KMUS 212315Z 21018G27KT 20/M08 A2963 RMK A01 T02011083  RH  014%=      5-min Rain = 0
KMUS 212320Z 21017G22KT 20/M08 A2962 RMK A01 T02001084  RH  014%=      5-min Rain = 0
KMUS 212325Z 21015KT 20/M08 A2962 RMK A01 T01971084  RH  014%=      5-min Rain = 0
KMUS 212330Z 21018G24KT 20/M08 A2962 RMK A01 T01971084  RH  014%=      5-min Rain = 0
KMUS 212335Z 21016G21KT 20/M08 A2962 RMK A01 T01961084  RH  014%=      5-min Rain = 0
KMUS 212340Z 21016G23KT 20/M09 A2961 RMK A01 T01951085  RH  014%=      5-min Rain = 0
KMUS 212345Z 21019G26KT 20/M09 A2961 RMK A01 T01961086  RH  014%=      5-min Rain = 0
KMUS 212350Z 21019G25KT 20/M09 A2961 RMK A01 T01971086  RH  014%=      5-min Rain = 0
KMUS 212355Z 21016G24KT 20/M09 A2962 RMK A01 T01951087  RH  014%=      5-min Rain = 0
KMUS 220000Z 21016G21KT 19/M09 A2962 RMK A01 T01941088  RH  014%=      5-min Rain = 0
KMUS 220005Z 21017G23KT 19/M09 A2962 RMK A01 T01941090  RH  014%=      5-min Rain = 0
KMUS 220010Z 21016KT 19/M09 A2962 RMK A01 T01921091  RH  014%=      5-min Rain = 0
KMUS 220015Z 21016G24KT 19/M09 A2962 RMK A01 T01911091  RH  014%=      5-min Rain = 0
KMUS 220020Z 22018G23KT 19/M09 A2962 RMK A01 T01911092  RH  014%=      5-min Rain = 0
KMUS 220025Z 22019G26KT 19/M09 A2961 RMK A01 T01911092  RH  014%=      5-min Rain = 0
KMUS 220030Z 22016G21KT 19/M09 A2961 RMK A01 T01881091  RH  014%=      5-min Rain = 0
KMUS 220035Z 22020G26KT 19/M09 A2961 RMK A01 T01871091  RH  014%=      5-min Rain = 0
KMUS 220040Z 22022G33KT 19/M09 A2961 RMK A01 T01891091  RH  014%=      5-min Rain = 0
KMUS 220045Z 22019G27KT 19/M09 A2961 RMK A01 T01871091  RH  014%=      5-min Rain = 0
KMUS 220050Z 22021G27KT 19/M09 A2961 RMK A01 T01851091  RH  014%=      5-min Rain = 0
KMUS 220055Z 22018G27KT 18/M09 A2962 RMK A01 T01831092  RH  015%=      5-min Rain = 0
KMUS 220100Z 22021G31KT 18/M09 A2961 RMK A01 T01821092  RH  015%=      5-min Rain = 0
KMUS 220105Z 21022G28KT 18/M09 A2961 RMK A01 T01811091  RH  015%=      5-min Rain = 0
KMUS 220110Z 21021G29KT 18/M09 A2961 RMK A01 T01801091  RH  015%=      5-min Rain = 0
KMUS 220115Z 21021G26KT 18/M09 A296 RMK A01 T01801091  RH  015%=      5-min Rain = 0
KMUS 220120Z 21021G27KT 18/M09 A2961 RMK A01 T01781089  RH  015%=      5-min Rain = 0
KMUS 220125Z 21022G29KT 18/M09 A2961 RMK A01 T01781089  RH  015%=      5-min Rain = 0
KMUS 220130Z 21022G29KT 18/M09 A2961 RMK A01 T01791089  RH  015%=      5-min Rain = 0
KMUS 220135Z 21020G28KT 18/M09 A2961 RMK A01 T01771087  RH  016%=      5-min Rain = 0
KMUS 220140Z 21021G28KT 18/M09 A2961 RMK A01 T01761085  RH  016%=      5-min Rain = 0
KMUS 220145Z 21020G27KT 18/M09 A2961 RMK A01 T01761085  RH  016%=      5-min Rain = 0
KMUS 220150Z 21020G27KT 18/M08 A2961 RMK A01 T01761084  RH  016%=      5-min Rain = 0
KMUS 220155Z 21021G29KT 18/M08 A2961 RMK A01 T01751083  RH  016%=      5-min Rain = 0
KMUS 220200Z 21021G28KT 18/M08 A2961 RMK A01 T01771083  RH  016%=      5-min Rain = 0
KMUS 220205Z 21020G26KT 18/M08 A2962 RMK A01 T01771082  RH  016%=      5-min Rain = 0
KMUS 220210Z 21019G26KT 18/M08 A2962 RMK A01 T01761081  RH  016%=      5-min Rain = 0
KMUS 220215Z 21018G23KT 17/M08 A2962 RMK A01 T01741081  RH  017%=      5-min Rain = 0
KMUS 220220Z 21016G22KT 17/M08 A2962 RMK A01 T01731080  RH  017%=      5-min Rain = 0
KMUS 220225Z 21017G24KT 17/M08 A2962 RMK A01 T01731080  RH  017%=      5-min Rain = 0
KMUS 220230Z 20019G25KT 17/M08 A2962 RMK A01 T01741080  RH  017%=      5-min Rain = 0
KMUS 220235Z 20018G23KT 17/M08 A2961 RMK A01 T01741079  RH  017%=      5-min Rain = 0
KMUS 220240Z 20019G24KT 17/M08 A2961 RMK A01 T01731079  RH  017%=      5-min Rain = 0
KMUS 220245Z 20019G27KT 18/M08 A2961 RMK A01 T01751079  RH  017%=      5-min Rain = 0
KMUS 220250Z 20018G24KT 17/M08 A2961 RMK A01 T01741079  RH  017%=      5-min Rain = 0
KMUS 220255Z 20018G24KT 17/M08 A2961 RMK A01 T01741078  RH  017%=      5-min Rain = 0
KMUS 220300Z 19017G23KT 17/M08 A296 RMK A01 T01731078  RH  017%=      5-min Rain = 0
KMUS 220305Z 19019G25KT 17/M08 A296 RMK A01 T01741078  RH  017%=      5-min Rain = 0
KMUS 220310Z 20020G25KT 18/M08 A296 RMK A01 T01751079  RH  017%=      5-min Rain = 0
KMUS 220315Z 20020G26KT 18/M08 A296 RMK A01 T01761079  RH  017%=      5-min Rain = 0
KMUS 220320Z 20018G24KT 18/M08 A2961 RMK A01 T01761079  RH  017%=      5-min Rain = 0
KMUS 220325Z 20018G23KT 18/M08 A2961 RMK A01 T01751079  RH  017%=      5-min Rain = 0
KMUS 220330Z 20017G22KT 18/M08 A2961 RMK A01 T01751078  RH  017%=      5-min Rain = 0
KMUS 220335Z 20017G22KT 17/M08 A2961 RMK A01 T01741078  RH  017%=      5-min Rain = 0
KMUS 220340Z 20017G22KT 17/M08 A296 RMK A01 T01741078  RH  017%=      5-min Rain = 0
KMUS 220345Z 20016G22KT 17/M08 A296 RMK A01 T01731078  RH  017%=      5-min Rain = 0
KMUS 220350Z 20015G21KT 17/M08 A296 RMK A01 T01731078  RH  017%=      5-min Rain = 0
KMUS 220355Z 20015KT 17/M08 A296 RMK A01 T01721078  RH  017%=      5-min Rain = 0
KMUS 220400Z 20015G22KT 17/M08 A296 RMK A01 T01711079  RH  017%=      5-min Rain = 0
KMUS 220405Z 20015G24KT 17/M08 A296 RMK A01 T01731080  RH  017%=      5-min Rain = 0
KMUS 220410Z 20013G19KT 17/M08 A296 RMK A01 T01701080  RH  017%=      5-min Rain = 0
KMUS 220415Z 20012G18KT 17/M08 A2961 RMK A01 T01671079  RH  018%=      5-min Rain = 0
KMUS 220420Z 21016G27KT 17/M08 A2961 RMK A01 T01681081  RH  017%=      5-min Rain = 0
KMUS 220425Z 21017G23KT 17/M08 A2961 RMK A01 T01741084  RH  016%=      5-min Rain = 0
KMUS 220430Z 21017KT 17/M08 A2961 RMK A01 T01741084  RH  016%=      5-min Rain = 0
KMUS 220435Z 22013G18KT 17/M08 A2961 RMK A01 T01681082  RH  017%=      5-min Rain = 0
KMUS 220440Z 21013G19KT 16/M08 A2961 RMK A01 T01641081  RH  018%=      5-min Rain = 0
KMUS 220445Z 20011KT 16/M08 A2962 RMK A01 T01571079  RH  019%=      5-min Rain = 0
KMUS 220450Z 19011KT 15/M08 A2962 RMK A01 T01521077  RH  020%=      5-min Rain = 0
KMUS 220455Z 18011KT 15/M08 A2962 RMK A01 T01471075  RH  021%=      5-min Rain = 0
KMUS 220500Z 18012KT 14/M07 A2962 RMK A01 T01401074  RH  022%=      5-min Rain = 0
KMUS 220505Z 17014KT 14/M07 A2962 RMK A01 T01361073  RH  023%=      5-min Rain = 0
KMUS 220510Z 17013G18KT 13/M07 A2962 RMK A01 T01321072  RH  024%=      5-min Rain = 0
KMUS 220515Z 19012KT 13/M07 A2962 RMK A01 T01291071  RH  024%=      5-min Rain = 0
KMUS 220520Z 19011KT 13/M07 A2962 RMK A01 T01311072  RH  024%=      5-min Rain = 0
KMUS 220525Z 18008KT 13/M07 A2963 RMK A01 T01281072  RH  024%=      5-min Rain = 0
KMUS 220530Z 18008KT 12/M07 A2963 RMK A01 T01191071  RH  026%=      5-min Rain = 0
KMUS 220535Z 19007KT 11/M07 A2963 RMK A01 T01131070  RH  027%=      5-min Rain = 0
KMUS 220540Z 19006KT 11/M07 A2963 RMK A01 T01091070  RH  028%=      5-min Rain = 0
KMUS 220545Z 18006KT 11/M07 A2963 RMK A01 T01051071  RH  028%=      5-min Rain = 0
KMUS 220550Z 17007KT 10/M07 A2963 RMK A01 T01011071  RH  029%=      5-min Rain = 0
KMUS 220555Z 18008KT 10/M07 A2963 RMK A01 T01011069  RH  029%=      5-min Rain = 0

Page generated in 0.0217 seconds.